createdAt,value
2018-06-05T00:02:27.335Z,25.13
2018-06-05T00:04:55.516Z,25.47
2018-06-05T00:07:23.845Z,23.87
2018-06-05T00:09:52.014Z,26.07
2018-06-05T00:12:20.213Z,25.43
2018-06-05T00:14:48.404Z,25.90
2018-06-05T00:17:16.590Z,25.07
2018-06-05T00:19:44.782Z,26.70
2018-06-05T00:22:12.991Z,26.73
2018-06-05T00:24:41.184Z,27.80
2018-06-05T00:27:09.339Z,26.97
2018-06-05T00:29:37.522Z,26.60
2018-06-05T00:32:05.814Z,26.33
2018-06-05T00:34:33.979Z,27.50
2018-06-05T00:37:02.156Z,26.70
2018-06-05T00:39:30.308Z,27.70
2018-06-05T00:41:58.499Z,26.53
2018-06-05T00:44:26.723Z,27.30
2018-06-05T00:46:55.139Z,27.97
2018-06-05T00:49:23.326Z,28.17
2018-06-05T00:52:02.850Z,27.47
2018-06-05T00:54:31.009Z,28.03
2018-06-05T00:56:59.194Z,29.50
2018-06-05T00:59:27.574Z,29.43
2018-06-05T01:01:55.738Z,29.03
2018-06-05T01:04:23.900Z,29.40
2018-06-05T01:06:52.093Z,28.00
2018-06-05T01:09:20.273Z,29.00
2018-06-05T01:11:48.458Z,28.47
2018-06-05T01:14:16.379Z,29.93
2018-06-05T01:16:44.565Z,30.97
2018-06-05T01:19:12.746Z,29.17
2018-06-05T01:21:40.950Z,28.80
2018-06-05T01:24:09.153Z,29.83
2018-06-05T01:26:37.335Z,28.83
2018-06-05T01:29:05.529Z,28.47
2018-06-05T01:31:33.714Z,29.53
2018-06-05T01:34:01.895Z,29.13
2018-06-05T01:36:30.173Z,29.20
2018-06-05T01:38:58.352Z,30.17
2018-06-05T01:41:26.554Z,30.23
2018-06-05T01:43:54.788Z,30.07
2018-06-05T01:46:22.965Z,31.43
2018-06-05T01:48:51.152Z,30.10
2018-06-05T01:51:19.341Z,29.63
2018-06-05T01:53:47.530Z,30.27
2018-06-05T01:56:15.793Z,31.63
2018-06-05T01:58:44.011Z,29.83
2018-06-05T02:01:12.201Z,29.43
2018-06-05T02:03:40.358Z,30.70
2018-06-05T02:06:08.577Z,31.03
2018-06-05T02:08:36.764Z,30.83
2018-06-05T02:11:04.962Z,29.90
2018-06-05T02:13:33.140Z,31.20
2018-06-05T02:16:01.357Z,30.40
2018-06-05T02:18:29.546Z,30.50
2018-06-05T02:20:57.758Z,32.07
2018-06-05T02:23:25.959Z,31.83
2018-06-05T02:25:54.160Z,33.10
2018-06-05T02:28:22.360Z,32.40
2018-06-05T02:30:50.539Z,33.27
2018-06-05T02:33:18.745Z,33.63
2018-06-05T02:35:47.709Z,32.90
2018-06-05T02:38:15.875Z,34.57
2018-06-05T02:40:44.065Z,34.87
2018-06-05T02:43:12.232Z,33.30
2018-06-05T02:45:40.402Z,33.97
2018-06-05T02:48:08.589Z,34.20
2018-06-05T02:50:36.806Z,33.43
2018-06-05T02:53:05.049Z,34.20
2018-06-05T02:55:33.216Z,33.10
2018-06-05T02:58:01.532Z,34.13
2018-06-05T03:00:29.751Z,32.10
2018-06-05T03:02:57.918Z,32.77
2018-06-05T03:05:26.176Z,33.63
2018-06-05T03:07:54.913Z,31.37
2018-06-05T03:10:23.090Z,31.57
2018-06-05T03:12:51.302Z,32.20
2018-06-05T03:15:19.473Z,31.27
2018-06-05T03:17:47.668Z,30.87
2018-06-05T03:20:15.870Z,30.33
2018-06-05T03:22:44.048Z,31.37
2018-06-05T03:25:12.255Z,30.47
2018-06-05T03:27:40.436Z,31.47
2018-06-05T03:30:08.612Z,29.60
2018-06-05T03:32:36.783Z,32.13
2018-06-05T03:35:05.258Z,30.17
2018-06-05T03:37:33.479Z,29.10
2018-06-05T03:40:01.662Z,28.53
2018-06-05T03:42:29.838Z,28.50
2018-06-05T03:44:58.046Z,29.13
2018-06-05T03:47:26.192Z,28.33
2018-06-05T03:49:54.376Z,29.67
2018-06-05T03:52:22.522Z,30.47
2018-06-05T03:54:50.717Z,29.07
2018-06-05T03:57:18.910Z,29.83
2018-06-05T03:59:47.101Z,29.27
2018-06-05T04:02:15.272Z,27.27
2018-06-05T04:04:43.438Z,27.77
2018-06-05T04:07:11.614Z,26.43
2018-06-05T04:09:39.817Z,27.77
2018-06-05T04:12:08.029Z,26.60
2018-06-05T04:14:36.179Z,26.33
2018-06-05T04:17:04.399Z,27.17
2018-06-05T04:19:32.611Z,27.27
2018-06-05T04:22:00.777Z,25.43
2018-06-05T04:24:28.951Z,24.87
2018-06-05T04:26:57.165Z,24.90
2018-06-05T04:29:25.411Z,24.17
2018-06-05T04:31:53.598Z,23.43
2018-06-05T04:34:21.772Z,24.57
2018-06-05T04:36:50.004Z,23.70
2018-06-05T04:39:18.177Z,23.23
2018-06-05T04:41:46.423Z,23.47
2018-06-05T04:44:14.582Z,22.70
2018-06-05T04:46:42.745Z,23.27
2018-06-05T04:49:10.962Z,23.93
2018-06-05T04:51:39.165Z,23.70
2018-06-05T04:54:07.345Z,24.73
2018-06-05T04:56:35.540Z,24.43
2018-06-05T04:59:03.706Z,24.03
2018-06-05T05:01:31.884Z,24.40
2018-06-05T05:04:00.093Z,24.13
2018-06-05T05:06:28.260Z,23.40
2018-06-05T05:08:56.474Z,25.83
2018-06-05T05:11:24.646Z,27.73
2018-06-05T05:13:52.837Z,28.07
2018-06-05T05:16:21.032Z,28.00
2018-06-05T05:18:49.290Z,27.93
2018-06-05T05:21:19.836Z,29.47
2018-06-05T05:23:48.047Z,29.33
2018-06-05T05:26:16.241Z,29.43
2018-06-05T05:28:44.406Z,29.10
2018-06-05T05:31:12.570Z,27.97
2018-06-05T05:33:40.728Z,29.77
2018-06-05T05:36:08.866Z,29.23
2018-06-05T05:38:37.014Z,27.30
2018-06-05T05:41:05.178Z,29.97
2018-06-05T05:43:33.301Z,28.13
2018-06-05T05:46:01.860Z,28.30
2018-06-05T05:48:30.317Z,28.50
2018-06-05T05:50:58.505Z,29.03
2018-06-05T05:53:26.649Z,28.23
2018-06-05T05:55:54.803Z,28.97
2018-06-05T05:58:23.136Z,29.67
2018-06-05T06:00:51.406Z,27.83
2018-06-05T06:03:19.548Z,29.87
2018-06-05T06:05:47.709Z,29.27
2018-06-05T06:08:15.828Z,29.53
2018-06-05T06:10:43.999Z,27.80
2018-06-05T06:13:12.128Z,28.77
2018-06-05T06:15:40.265Z,29.20
2018-06-05T06:18:08.425Z,29.20
2018-06-05T06:20:36.593Z,28.73
2018-06-05T06:23:04.920Z,29.87
2018-06-05T06:25:33.085Z,29.17
2018-06-05T06:28:01.232Z,29.67
2018-06-05T06:30:29.664Z,30.43
2018-06-05T06:32:57.854Z,30.03
2018-06-05T06:35:26.339Z,28.77
2018-06-05T06:37:54.483Z,28.47
2018-06-05T06:40:22.800Z,29.47
2018-06-05T06:42:50.930Z,30.70
2018-06-05T06:45:19.076Z,30.27
2018-06-05T06:47:48.098Z,33.73
2018-06-05T06:50:16.242Z,29.50
2018-06-05T06:52:44.364Z,28.83
2018-06-05T06:55:12.502Z,28.70
2018-06-05T06:57:40.636Z,29.67
2018-06-05T07:00:08.772Z,29.73
2018-06-05T07:02:36.921Z,29.33
2018-06-05T07:05:05.065Z,27.90
2018-06-05T07:07:33.204Z,28.67
2018-06-05T07:10:01.370Z,29.30
2018-06-05T07:12:29.546Z,30.03
2018-06-05T07:14:57.692Z,30.67
2018-06-05T07:17:26.213Z,30.40
2018-06-05T07:19:54.357Z,31.70
2018-06-05T07:22:22.491Z,32.00
2018-06-05T07:24:50.652Z,29.93
2018-06-05T07:27:18.800Z,31.07
2018-06-05T07:29:46.935Z,31.87
2018-06-05T07:32:15.097Z,33.73
2018-06-05T07:34:43.229Z,31.73
2018-06-05T07:37:11.360Z,33.50
2018-06-05T07:39:39.525Z,33.90
2018-06-05T07:42:07.657Z,33.53
2018-06-05T07:44:35.809Z,32.13
2018-06-05T07:47:03.973Z,34.00
2018-06-05T07:49:32.105Z,33.63
2018-06-05T07:52:01.248Z,31.43
2018-06-05T07:54:29.408Z,32.67
2018-06-05T07:56:57.585Z,32.60
2018-06-05T07:59:25.766Z,31.97
2018-06-05T08:01:53.924Z,32.17
2018-06-05T08:04:22.088Z,32.70
2018-06-05T08:06:50.184Z,30.60
2018-06-05T08:09:18.349Z,30.50
2018-06-05T08:11:46.529Z,30.07
2018-06-05T08:14:14.611Z,29.27
2018-06-05T08:16:42.788Z,29.73
2018-06-05T08:19:10.937Z,29.13
2018-06-05T08:21:39.113Z,29.00
2018-06-05T08:24:07.268Z,28.83
2018-06-05T08:26:46.789Z,29.07
2018-06-05T08:29:14.948Z,29.10
2018-06-05T08:31:43.090Z,29.60
2018-06-05T08:34:11.229Z,29.13
2018-06-05T08:36:39.407Z,27.53
2018-06-05T08:39:08.141Z,28.63
2018-06-05T08:41:42.766Z,28.40
2018-06-05T08:44:10.890Z,27.27
2018-06-05T08:46:39.056Z,28.20
2018-06-05T08:49:07.212Z,27.37
2018-06-05T08:51:35.363Z,27.37
2018-06-05T08:54:03.525Z,27.60
2018-06-05T09:14:45.208Z,27.57
2018-06-05T09:17:13.345Z,27.97
2018-06-05T09:19:41.474Z,27.43
2018-06-05T09:22:09.617Z,27.40
2018-06-05T09:24:37.744Z,28.17
2018-06-05T09:27:05.885Z,27.23
2018-06-05T09:29:34.036Z,27.87
2018-06-05T09:32:02.160Z,28.10
2018-06-05T09:34:30.304Z,28.17
2018-06-05T09:36:58.469Z,27.80
2018-06-05T09:39:26.629Z,27.47
2018-06-05T09:41:54.774Z,27.40
2018-06-05T09:44:22.933Z,27.03
2018-06-05T09:46:50.862Z,26.47
2018-06-05T09:49:18.967Z,26.70
2018-06-05T09:51:47.110Z,26.27
2018-06-05T09:54:15.257Z,26.57
2018-06-05T09:56:43.410Z,26.70
2018-06-05T09:59:11.824Z,26.67
2018-06-05T10:01:39.954Z,26.63
2018-06-05T10:04:08.096Z,25.60
2018-06-05T10:06:36.244Z,25.87
2018-06-05T10:09:05.891Z,26.00
2018-06-05T10:11:33.963Z,26.47
2018-06-05T10:14:08.506Z,26.17
2018-06-05T10:16:36.597Z,26.83
2018-06-05T10:19:04.802Z,27.50
2018-06-05T10:21:32.953Z,26.37
2018-06-05T10:24:01.078Z,26.80
2018-06-05T10:26:29.196Z,26.03
2018-06-05T10:28:57.545Z,25.23
2018-06-05T10:31:25.683Z,26.73
2018-06-05T10:33:53.832Z,25.90
2018-06-05T10:36:21.995Z,26.83
2018-06-05T10:38:50.131Z,26.50
2018-06-05T10:41:18.263Z,26.60
2018-06-05T10:43:46.420Z,26.80
2018-06-05T10:46:14.568Z,27.63
2018-06-05T10:48:42.704Z,26.13
2018-06-05T10:51:10.861Z,26.57
2018-06-05T10:53:39.044Z,26.87
2018-06-05T10:56:07.153Z,26.50
2018-06-05T10:58:35.301Z,26.87
2018-06-05T11:01:03.456Z,25.83
2018-06-05T11:03:31.614Z,25.90
2018-06-05T11:05:59.760Z,25.60
2018-06-05T11:08:27.900Z,25.27
2018-06-05T11:10:56.037Z,27.37
2018-06-05T11:13:24.175Z,26.67
2018-06-05T11:15:52.321Z,25.73
2018-06-05T11:18:20.536Z,25.77
2018-06-05T11:20:48.628Z,25.93
2018-06-05T11:23:16.777Z,26.83
2018-06-05T11:25:44.913Z,25.17
2018-06-05T11:28:13.044Z,25.03
2018-06-05T11:30:41.327Z,25.00
2018-06-05T11:33:09.457Z,25.63
2018-06-05T11:35:37.602Z,25.77
2018-06-05T11:38:05.772Z,24.90
2018-06-05T11:40:33.918Z,24.17
2018-06-05T11:43:02.039Z,25.43
2018-06-05T11:45:30.184Z,25.20
2018-06-05T11:47:58.329Z,24.37
2018-06-05T11:50:26.470Z,23.53
2018-06-05T11:52:54.615Z,25.57
2018-06-05T11:55:22.751Z,24.00
2018-06-05T11:57:50.888Z,25.53
2018-06-05T12:00:19.052Z,25.03
2018-06-05T12:02:47.253Z,26.40
2018-06-05T12:05:15.414Z,26.33
2018-06-05T12:07:43.565Z,25.70
2018-06-05T12:10:11.691Z,24.17
2018-06-05T12:12:39.839Z,23.87
2018-06-05T12:15:08.008Z,24.63
2018-06-05T12:17:36.137Z,24.23
2018-06-05T12:20:04.368Z,24.97
2018-06-05T12:22:32.508Z,24.73
2018-06-05T12:25:00.644Z,24.17
2018-06-05T12:27:29.402Z,25.73
2018-06-05T12:29:57.536Z,24.03
2018-06-05T12:32:25.672Z,25.33
2018-06-05T12:34:53.818Z,26.07
2018-06-05T12:37:21.970Z,24.33
2018-06-05T12:39:50.107Z,24.73
2018-06-05T12:42:18.272Z,25.73
2018-06-05T12:44:46.761Z,25.83
2018-06-05T12:47:14.897Z,25.60
2018-06-05T12:49:43.037Z,25.73
2018-06-05T12:52:11.186Z,25.53
2018-06-05T12:54:39.329Z,26.47
2018-06-05T12:57:07.472Z,26.83
2018-06-05T12:59:35.633Z,25.57
2018-06-05T13:02:03.858Z,26.43
2018-06-05T13:04:31.989Z,26.20
2018-06-05T13:07:00.135Z,24.40
2018-06-05T13:09:28.263Z,26.33
2018-06-05T13:11:56.397Z,26.03
2018-06-05T13:14:24.549Z,27.90
2018-06-05T13:16:52.693Z,26.03
2018-06-05T13:19:20.820Z,26.27
2018-06-05T13:21:48.729Z,26.17
2018-06-05T13:24:16.864Z,26.43
2018-06-05T13:26:44.992Z,25.43
2018-06-05T13:29:13.135Z,27.67
2018-06-05T13:31:41.288Z,26.10
2018-06-05T13:34:09.428Z,28.13
2018-06-05T13:36:37.629Z,27.73
2018-06-05T13:39:08.127Z,26.77
2018-06-05T13:41:36.303Z,28.20
2018-06-05T13:44:04.691Z,26.80
2018-06-05T13:46:32.816Z,26.83
2018-06-05T13:49:00.970Z,26.93
2018-06-05T13:51:29.120Z,26.83
2018-06-05T13:53:57.259Z,25.97
2018-06-05T13:56:25.401Z,27.23
2018-06-05T13:58:53.679Z,27.27
2018-06-05T14:01:21.808Z,26.83
2018-06-05T14:03:49.953Z,27.40
2018-06-05T14:06:18.105Z,26.83
2018-06-05T14:08:46.244Z,26.60
2018-06-05T14:11:14.364Z,26.33
2018-06-05T14:13:42.560Z,26.40
2018-06-05T14:16:10.703Z,26.53
2018-06-05T14:18:38.853Z,26.03
2018-06-05T14:21:07.026Z,26.50
2018-06-05T14:23:35.161Z,28.43
2018-06-05T14:26:03.296Z,27.03
2018-06-05T14:28:31.441Z,28.57
2018-06-05T14:30:59.577Z,27.23
2018-06-05T14:33:27.696Z,28.20
2018-06-05T14:35:56.132Z,27.53
2018-06-05T14:38:24.255Z,26.87
2018-06-05T14:40:52.400Z,27.07
2018-06-05T14:43:20.566Z,26.77
2018-06-05T14:45:48.743Z,28.67
2018-06-05T14:48:16.884Z,28.43
2018-06-05T14:50:45.051Z,27.83
2018-06-05T14:53:13.199Z,28.77
2018-06-05T14:55:41.372Z,26.57
2018-06-05T14:58:09.530Z,28.13
2018-06-05T15:00:37.653Z,28.57
2018-06-05T15:03:06.061Z,31.27
2018-06-05T15:05:34.235Z,32.13
2018-06-05T15:08:02.340Z,32.03
2018-06-05T15:10:30.477Z,32.17
2018-06-05T15:12:58.630Z,32.23
2018-06-05T15:15:26.786Z,33.17
2018-06-05T15:17:54.911Z,29.00
2018-06-05T15:20:23.050Z,31.10
2018-06-05T15:22:51.632Z,32.70
2018-06-05T15:25:19.590Z,33.87
2018-06-05T15:27:47.743Z,32.80
2018-06-05T15:30:15.903Z,34.07
2018-06-05T15:32:44.040Z,32.93
2018-06-05T15:35:12.199Z,30.57
2018-06-05T15:37:40.380Z,29.57
2018-06-05T15:40:08.542Z,28.90
2018-06-05T15:42:36.688Z,30.37
2018-06-05T15:45:04.877Z,26.47
2018-06-05T15:47:33.017Z,26.90
2018-06-05T15:50:01.169Z,26.53
2018-06-05T15:52:29.328Z,26.57
2018-06-05T15:54:57.470Z,25.03
2018-06-05T15:57:25.621Z,25.23
2018-06-05T15:59:53.782Z,25.73
2018-06-05T16:02:21.917Z,26.50
2018-06-05T16:04:50.067Z,26.10
2018-06-05T16:07:18.234Z,26.73
2018-06-05T16:09:46.373Z,26.87
2018-06-05T16:12:14.516Z,26.90
2018-06-05T16:14:42.686Z,28.43
2018-06-05T16:17:10.823Z,25.10
2018-06-05T16:19:38.963Z,26.93
2018-06-05T16:22:07.137Z,26.97
2018-06-05T16:24:35.268Z,26.07
2018-06-05T16:27:03.425Z,26.40
2018-06-05T16:29:31.593Z,27.13
2018-06-05T16:32:00.057Z,27.00
2018-06-05T16:34:28.925Z,26.10
2018-06-05T16:36:57.177Z,25.80
2018-06-05T16:39:27.874Z,27.17
2018-06-05T16:41:55.997Z,27.80
2018-06-05T16:44:25.163Z,25.53
2018-06-05T16:46:55.320Z,26.83
2018-06-05T16:49:23.448Z,25.27
2018-06-05T16:51:52.172Z,25.03
2018-06-05T16:54:20.300Z,26.37
2018-06-05T16:56:49.004Z,26.83
2018-06-05T16:59:17.159Z,25.20
2018-06-05T17:01:45.291Z,24.60
2018-06-05T17:04:13.483Z,27.33
2018-06-05T17:06:41.649Z,26.27
2018-06-05T17:09:09.771Z,26.53
2018-06-05T17:11:37.917Z,26.90
2018-06-05T17:14:06.070Z,26.57
2018-06-05T17:16:34.200Z,25.80
2018-06-05T17:19:02.370Z,27.10
2018-06-05T17:21:30.557Z,25.37
2018-06-05T17:23:58.696Z,26.37
2018-06-05T17:26:26.832Z,26.90
2018-06-05T17:28:55.006Z,27.77
2018-06-05T17:31:23.144Z,26.20
2018-06-05T17:33:51.042Z,25.83
2018-06-05T17:36:19.185Z,25.40
2018-06-05T17:38:47.323Z,26.87
2018-06-05T17:41:15.465Z,27.87
2018-06-05T17:43:43.632Z,27.50
2018-06-05T17:46:11.765Z,27.93
2018-06-05T17:48:39.926Z,26.30
2018-06-05T17:51:08.239Z,27.23
2018-06-05T17:53:36.304Z,27.30
2018-06-05T17:56:04.656Z,27.73
2018-06-05T17:58:32.808Z,28.40
2018-06-05T18:01:00.955Z,28.30
2018-06-05T18:03:29.096Z,29.43
2018-06-05T18:05:57.245Z,28.93
2018-06-05T18:08:25.395Z,29.07
2018-06-05T18:10:53.525Z,28.33
2018-06-05T18:13:21.669Z,27.90
2018-06-05T18:15:49.796Z,27.30
2018-06-05T18:18:17.928Z,28.23
2018-06-05T18:20:46.080Z,27.40
2018-06-05T18:23:14.216Z,26.77
2018-06-05T18:25:42.361Z,27.77
2018-06-05T18:28:10.518Z,25.73
2018-06-05T18:30:38.684Z,26.53
2018-06-05T18:33:06.829Z,26.63
2018-06-05T18:35:35.001Z,26.83
2018-06-05T18:38:03.142Z,27.60
2018-06-05T18:40:31.292Z,26.50
2018-06-05T18:42:59.454Z,26.50
2018-06-05T18:45:27.602Z,24.67
2018-06-05T18:47:55.740Z,25.37
2018-06-05T18:50:23.917Z,25.13
2018-06-05T18:52:52.127Z,24.20
2018-06-05T18:55:20.223Z,24.47
2018-06-05T18:57:48.468Z,24.20
2018-06-05T19:00:17.933Z,24.83
2018-06-05T19:02:46.092Z,22.93
2018-06-05T19:05:14.236Z,23.00
2018-06-05T19:07:42.407Z,23.50
2018-06-05T19:10:12.901Z,23.00
2018-06-05T19:12:41.073Z,22.50
2018-06-05T19:15:09.219Z,21.73
2018-06-05T19:17:37.402Z,22.60
2018-06-05T19:20:05.668Z,23.10
2018-06-05T19:22:33.808Z,22.30
2018-06-05T19:25:01.970Z,22.60
2018-06-05T19:27:30.136Z,21.20
2018-06-05T19:29:58.327Z,23.23
2018-06-05T19:32:26.465Z,21.67
2018-06-05T19:34:54.630Z,21.77
2018-06-05T19:37:22.772Z,22.63
2018-06-05T19:39:50.920Z,22.10
2018-06-05T19:42:19.071Z,22.77
2018-06-05T19:44:47.227Z,23.17
2018-06-05T19:47:17.213Z,22.97
2018-06-05T19:49:45.618Z,22.90
2018-06-05T19:52:14.682Z,23.33
2018-06-05T19:54:42.860Z,23.10
2018-06-05T19:57:10.989Z,22.87
2018-06-05T19:59:40.148Z,22.83
2018-06-05T20:02:08.433Z,23.53
2018-06-05T20:04:36.658Z,23.47
2018-06-05T20:07:04.849Z,22.33
2018-06-05T20:09:32.874Z,24.87
2018-06-05T20:12:01.084Z,23.53
2018-06-05T20:14:29.522Z,23.20
2018-06-05T20:16:58.089Z,22.93
2018-06-05T20:19:26.512Z,22.87
2018-06-05T20:21:54.725Z,24.50
2018-06-05T20:24:22.977Z,26.07
2018-06-05T20:26:51.177Z,27.13
2018-06-05T20:29:19.372Z,25.57
2018-06-05T20:31:47.384Z,25.53
2018-06-05T20:34:15.591Z,25.53
2018-06-05T20:36:43.787Z,25.17
2018-06-05T20:39:12.038Z,25.13
2018-06-05T20:41:40.266Z,25.33
2018-06-05T20:44:08.481Z,24.83
2018-06-05T20:46:36.687Z,25.87
2018-06-05T20:49:05.200Z,26.77
2018-06-05T20:51:33.404Z,25.50
2018-06-05T20:54:01.660Z,26.90
2018-06-05T20:56:29.895Z,27.57
2018-06-05T20:58:58.105Z,25.60
2018-06-05T21:01:26.349Z,25.73
2018-06-05T21:03:54.535Z,27.47
2018-06-05T21:06:22.755Z,27.60
2018-06-05T21:08:51.008Z,26.37
2018-06-05T21:11:19.220Z,27.43
2018-06-05T21:13:47.438Z,28.07
2018-06-05T21:16:15.691Z,28.30
2018-06-05T21:18:43.897Z,28.00
2018-06-05T21:21:12.108Z,28.47
2018-06-05T21:23:40.364Z,27.50
2018-06-05T21:26:08.580Z,27.70
2018-06-05T21:28:36.798Z,27.40
2018-06-05T21:31:04.992Z,28.40
2018-06-05T21:33:33.183Z,28.83
2018-06-05T21:36:01.371Z,28.47
2018-06-05T21:38:29.912Z,29.47
2018-06-05T21:41:00.008Z,29.27
2018-06-05T21:43:28.264Z,28.10
2018-06-05T21:45:56.480Z,27.93
2018-06-05T21:48:24.673Z,28.60
2018-06-05T21:50:52.872Z,29.57
2018-06-05T21:53:21.098Z,28.67
2018-06-05T21:55:49.314Z,28.93
2018-06-05T21:58:17.524Z,29.80
2018-06-05T22:00:45.720Z,30.17
2018-06-05T22:03:13.925Z,29.60
2018-06-05T22:05:42.121Z,29.30
2018-06-05T22:08:10.432Z,30.30
2018-06-05T22:10:38.600Z,29.30
2018-06-05T22:13:06.787Z,29.37
2018-06-05T22:15:34.968Z,28.50
2018-06-05T22:18:03.163Z,28.87
2018-06-05T22:20:31.366Z,28.40
2018-06-05T22:22:59.553Z,29.77
2018-06-05T22:25:27.745Z,31.00
2018-06-05T22:27:55.954Z,30.20
2018-06-05T22:30:24.145Z,30.30
2018-06-05T22:32:52.354Z,28.70
2018-06-05T22:35:20.549Z,29.53
2018-06-05T22:37:48.779Z,29.80
